sensor_id;sensor_type;location;lat;lon;timestamp;pressure;altitude;pressure_sealevel;temperature;humidity
46456;BME280;64052;47.466;9.094;2023-03-23T00:04:42;95304.44;;;14.44;45.83
46456;BME280;64052;47.466;9.094;2023-03-23T00:09:43;95301.47;;;14.47;46.15
46456;BME280;64052;47.466;9.094;2023-03-23T00:14:43;95315.25;;;14.51;45.59
46456;BME280;64052;47.466;9.094;2023-03-23T00:19:44;95314.25;;;14.44;45.47
46456;BME280;64052;47.466;9.094;2023-03-23T00:24:44;95311.44;;;14.37;45.93
46456;BME280;64052;47.466;9.094;2023-03-23T00:29:45;95305.44;;;14.43;45.91
46456;BME280;64052;47.466;9.094;2023-03-23T00:34:46;95299.34;;;14.51;46.38
46456;BME280;64052;47.466;9.094;2023-03-23T00:39:47;95295.38;;;14.39;45.89
46456;BME280;64052;47.466;9.094;2023-03-23T00:44:47;95297.53;;;14.35;45.83
46456;BME280;64052;47.466;9.094;2023-03-23T00:49:48;95293.53;;;14.31;46.22
46456;BME280;64052;47.466;9.094;2023-03-23T00:54:48;95293.38;;;14.24;46.11
46456;BME280;64052;47.466;9.094;2023-03-23T00:59:51;95290.25;;;14.21;46.08
46456;BME280;64052;47.466;9.094;2023-03-23T01:04:51;95286.91;;;14.27;46.83
46456;BME280;64052;47.466;9.094;2023-03-23T01:09:52;95283.28;;;14.28;46.40
46456;BME280;64052;47.466;9.094;2023-03-23T01:14:52;95276.81;;;14.22;45.88
46456;BME280;64052;47.466;9.094;2023-03-23T01:19:53;95275.00;;;14.23;46.08
46456;BME280;64052;47.466;9.094;2023-03-23T01:24:53;95275.31;;;14.28;46.21
46456;BME280;64052;47.466;9.094;2023-03-23T01:29:54;95263.56;;;14.22;46.05
46456;BME280;64052;47.466;9.094;2023-03-23T01:34:55;95256.25;;;14.24;45.55
46456;BME280;64052;47.466;9.094;2023-03-23T01:39:56;95259.91;;;14.23;46.32
46456;BME280;64052;47.466;9.094;2023-03-23T01:50:21;95253.81;;;14.14;45.43
46456;BME280;64052;47.466;9.094;2023-03-23T01:55:25;95262.41;;;14.16;45.90
46456;BME280;64052;47.466;9.094;2023-03-23T02:00:26;95257.75;;;14.18;45.70
46456;BME280;64052;47.466;9.094;2023-03-23T02:05:32;95262.91;;;14.28;45.47
46456;BME280;64052;47.466;9.094;2023-03-23T02:10:39;95265.72;;;14.27;45.02
46456;BME280;64052;47.466;9.094;2023-03-23T02:15:59;95255.25;;;14.33;45.37
46456;BME280;64052;47.466;9.094;2023-03-23T02:21:17;95264.56;;;14.29;45.63
46456;BME280;64052;47.466;9.094;2023-03-23T02:37:09;95271.31;;;14.40;45.49
46456;BME280;64052;47.466;9.094;2023-03-23T02:42:15;95275.84;;;14.07;45.77
46456;BME280;64052;47.466;9.094;2023-03-23T02:47:27;95279.47;;;14.39;45.22
46456;BME280;64052;47.466;9.094;2023-03-23T02:52:30;95276.31;;;14.27;45.96
46456;BME280;64052;47.466;9.094;2023-03-23T02:57:32;95279.78;;;14.36;45.49
46456;BME280;64052;47.466;9.094;2023-03-23T03:02:36;95280.84;;;14.01;46.33
46456;BME280;64052;47.466;9.094;2023-03-23T03:07:53;95289.44;;;14.03;47.10
46456;BME280;64052;47.466;9.094;2023-03-23T03:23:15;95262.78;;;13.97;48.90
46456;BME280;64052;47.466;9.094;2023-03-23T03:28:19;95271.22;;;13.92;49.04
46456;BME280;64052;47.466;9.094;2023-03-23T03:33:22;95265.09;;;13.83;50.15
46456;BME280;64052;47.466;9.094;2023-03-23T03:38:25;95256.47;;;13.81;50.16
46456;BME280;64052;47.466;9.094;2023-03-23T03:43:27;95256.00;;;13.77;50.24
46456;BME280;64052;47.466;9.094;2023-03-23T03:48:28;95240.56;;;13.65;51.14
46456;BME280;64052;47.466;9.094;2023-03-23T03:53:29;95240.09;;;13.53;51.52
46456;BME280;64052;47.466;9.094;2023-03-23T03:58:29;95242.38;;;13.47;52.51
46456;BME280;64052;47.466;9.094;2023-03-23T04:03:39;95232.63;;;13.56;52.17
46456;BME280;64052;47.466;9.094;2023-03-23T04:08:46;95222.69;;;13.50;51.45
46456;BME280;64052;47.466;9.094;2023-03-23T04:13:47;95222.38;;;13.61;51.93
46456;BME280;64052;47.466;9.094;2023-03-23T04:18:54;95211.44;;;13.56;51.84
46456;BME280;64052;47.466;9.094;2023-03-23T04:23:55;95219.06;;;13.51;52.04
46456;BME280;64052;47.466;9.094;2023-03-23T04:28:56;95222.34;;;13.53;51.81
46456;BME280;64052;47.466;9.094;2023-03-23T04:34:17;95216.09;;;13.46;52.13
46456;BME280;64052;47.466;9.094;2023-03-23T04:39:21;95209.25;;;13.43;52.42
46456;BME280;64052;47.466;9.094;2023-03-23T04:44:22;95204.13;;;13.33;53.09
46456;BME280;64052;47.466;9.094;2023-03-23T04:49:35;95207.25;;;13.37;53.31
46456;BME280;64052;47.466;9.094;2023-03-23T04:54:46;95199.16;;;13.39;53.08
46456;BME280;64052;47.466;9.094;2023-03-23T04:59:47;95192.03;;;13.39;53.08
46456;BME280;64052;47.466;9.094;2023-03-23T05:04:51;95200.19;;;13.46;52.45
46456;BME280;64052;47.466;9.094;2023-03-23T05:09:55;95195.84;;;13.37;53.11
46456;BME280;64052;47.466;9.094;2023-03-23T05:15:00;95196.53;;;13.55;52.06
46456;BME280;64052;47.466;9.094;2023-03-23T05:20:05;95192.41;;;13.61;50.25
46456;BME280;64052;47.466;9.094;2023-03-23T05:25:28;95183.63;;;13.69;50.52
46456;BME280;64052;47.466;9.094;2023-03-23T05:30:36;95188.06;;;13.76;48.07
46456;BME280;64052;47.466;9.094;2023-03-23T05:35:37;95184.72;;;13.99;47.06
46456;BME280;64052;47.466;9.094;2023-03-23T05:40:38;95189.47;;;14.29;45.86
46456;BME280;64052;47.466;9.094;2023-03-23T05:45:47;95183.63;;;14.42;45.20
46456;BME280;64052;47.466;9.094;2023-03-23T05:50:48;95186.44;;;14.48;45.09
46456;BME280;64052;47.466;9.094;2023-03-23T05:55:49;95190.03;;;14.56;44.94
46456;BME280;64052;47.466;9.094;2023-03-23T06:01:00;95183.34;;;14.68;44.42
46456;BME280;64052;47.466;9.094;2023-03-23T06:06:04;95189.16;;;14.80;44.15
46456;BME280;64052;47.466;9.094;2023-03-23T06:11:19;95202.41;;;14.80;44.17
46456;BME280;64052;47.466;9.094;2023-03-23T06:16:34;95224.44;;;14.89;43.35
46456;BME280;64052;47.466;9.094;2023-03-23T06:21:40;95214.13;;;14.94;43.71
46456;BME280;64052;47.466;9.094;2023-03-23T06:26:57;95226.22;;;14.97;43.14
46456;BME280;64052;47.466;9.094;2023-03-23T06:32:00;95226.78;;;15.15;43.42
46456;BME280;64052;47.466;9.094;2023-03-23T06:37:03;95225.56;;;15.26;42.94
46456;BME280;64052;47.466;9.094;2023-03-23T06:42:16;95219.88;;;15.29;42.97
46456;BME280;64052;47.466;9.094;2023-03-23T06:47:23;95231.69;;;15.27;44.47
46456;BME280;64052;47.466;9.094;2023-03-23T06:52:25;95234.81;;;15.30;44.57
46456;BME280;64052;47.466;9.094;2023-03-23T06:57:27;95241.84;;;15.23;45.10
46456;BME280;64052;47.466;9.094;2023-03-23T07:02:29;95234.59;;;15.40;45.55
46456;BME280;64052;47.466;9.094;2023-03-23T07:07:30;95234.13;;;15.37;46.00
46456;BME280;64052;47.466;9.094;2023-03-23T07:12:49;95238.19;;;15.48;46.63
46456;BME280;64052;47.466;9.094;2023-03-23T07:17:50;95239.91;;;15.64;47.41
46456;BME280;64052;47.466;9.094;2023-03-23T07:22:59;95236.81;;;15.98;47.08
46456;BME280;64052;47.466;9.094;2023-03-23T07:28:22;95255.75;;;16.04;43.98
46456;BME280;64052;47.466;9.094;2023-03-23T07:33:24;95256.09;;;16.00;44.68
46456;BME280;64052;47.466;9.094;2023-03-23T07:38:25;95270.84;;;16.03;43.40
46456;BME280;64052;47.466;9.094;2023-03-23T07:43:26;95276.00;;;16.05;43.88
46456;BME280;64052;47.466;9.094;2023-03-23T07:48:45;95284.66;;;16.22;44.63
46456;BME280;64052;47.466;9.094;2023-03-23T07:53:46;95272.59;;;16.34;42.44
46456;BME280;64052;47.466;9.094;2023-03-23T07:59:06;95279.91;;;16.47;42.74
46456;BME280;64052;47.466;9.094;2023-03-23T08:04:10;95272.78;;;16.63;42.61
46456;BME280;64052;47.466;9.094;2023-03-23T08:09:41;95278.78;;;16.80;42.43
46456;BME280;64052;47.466;9.094;2023-03-23T08:15:11;95286.72;;;16.95;40.93
46456;BME280;64052;47.466;9.094;2023-03-23T08:20:31;95283.72;;;16.98;39.71
46456;BME280;64052;47.466;9.094;2023-03-23T08:25:34;95291.53;;;16.99;40.86
46456;BME280;64052;47.466;9.094;2023-03-23T08:31:08;95296.38;;;16.96;40.85
46456;BME280;64052;47.466;9.094;2023-03-23T08:36:23;95303.56;;;17.10;39.42
46456;BME280;64052;47.466;9.094;2023-03-23T08:41:42;95301.50;;;17.27;38.52
46456;BME280;64052;47.466;9.094;2023-03-23T08:46:52;95299.19;;;17.39;40.74
46456;BME280;64052;47.466;9.094;2023-03-23T08:52:15;95314.34;;;17.39;38.90
46456;BME280;64052;47.466;9.094;2023-03-23T08:57:36;95317.13;;;17.31;37.48
46456;BME280;64052;47.466;9.094;2023-03-23T09:03:02;95307.75;;;17.35;37.29
46456;BME280;64052;47.466;9.094;2023-03-23T09:08:29;95322.81;;;17.42;38.15
46456;BME280;64052;47.466;9.094;2023-03-23T09:13:30;95322.34;;;17.39;38.17
46456;BME280;64052;47.466;9.094;2023-03-23T09:18:30;95330.88;;;17.49;37.84
46456;BME280;64052;47.466;9.094;2023-03-23T09:23:32;95339.16;;;17.54;38.95
46456;BME280;64052;47.466;9.094;2023-03-23T09:28:33;95337.19;;;17.63;37.40
46456;BME280;64052;47.466;9.094;2023-03-23T09:33:33;95335.75;;;17.82;37.36
46456;BME280;64052;47.466;9.094;2023-03-23T09:38:33;95331.00;;;18.00;37.19
46456;BME280;64052;47.466;9.094;2023-03-23T09:48:54;95325.00;;;18.12;36.42
46456;BME280;64052;47.466;9.094;2023-03-23T09:53:59;95321.88;;;18.31;36.79
46456;BME280;64052;47.466;9.094;2023-03-23T09:59:29;95322.81;;;18.23;35.18
46456;BME280;64052;47.466;9.094;2023-03-23T10:09:53;95338.56;;;17.96;34.89
46456;BME280;64052;47.466;9.094;2023-03-23T10:30:27;95347.84;;;18.22;34.48
46456;BME280;64052;47.466;9.094;2023-03-23T10:35:36;95340.88;;;18.43;35.95
46456;BME280;64052;47.466;9.094;2023-03-23T10:40:59;95352.63;;;18.48;35.42
46456;BME280;64052;47.466;9.094;2023-03-23T10:46:03;95356.31;;;18.47;36.11
46456;BME280;64052;47.466;9.094;2023-03-23T10:51:10;95363.06;;;18.50;34.84
46456;BME280;64052;47.466;9.094;2023-03-23T10:56:36;95365.38;;;18.53;35.97
46456;BME280;64052;47.466;9.094;2023-03-23T11:01:37;95370.97;;;18.58;35.55
46456;BME280;64052;47.466;9.094;2023-03-23T11:06:37;95365.97;;;18.48;35.68
46456;BME280;64052;47.466;9.094;2023-03-23T11:11:40;95367.50;;;18.36;36.72
46456;BME280;64052;47.466;9.094;2023-03-23T11:17:03;95362.28;;;18.28;37.41
46456;BME280;64052;47.466;9.094;2023-03-23T11:27:05;95360.31;;;18.36;37.18
46456;BME280;64052;47.466;9.094;2023-03-23T11:32:10;95363.53;;;18.53;36.59
46456;BME280;64052;47.466;9.094;2023-03-23T11:37:24;95355.44;;;18.68;36.80
46456;BME280;64052;47.466;9.094;2023-03-23T11:42:38;95361.53;;;18.91;35.88
46456;BME280;64052;47.466;9.094;2023-03-23T11:47:50;95343.28;;;18.94;35.68
46456;BME280;64052;47.466;9.094;2023-03-23T11:53:08;95349.59;;;19.15;36.09
46456;BME280;64052;47.466;9.094;2023-03-23T11:58:12;95340.28;;;19.46;36.01
46456;BME280;64052;47.466;9.094;2023-03-23T12:03:14;95342.69;;;19.28;35.85
46456;BME280;64052;47.466;9.094;2023-03-23T12:19:06;95322.94;;;19.29;35.74
46456;BME280;64052;47.466;9.094;2023-03-23T12:29:53;95316.50;;;19.65;35.63
46456;BME280;64052;47.466;9.094;2023-03-23T12:56:32;95281.75;;;19.65;34.41
46456;BME280;64052;47.466;9.094;2023-03-23T13:01:38;95267.53;;;19.71;33.16
46456;BME280;64052;47.466;9.094;2023-03-23T13:06:44;95267.97;;;19.68;34.25
46456;BME280;64052;47.466;9.094;2023-03-23T13:11:45;95268.97;;;19.60;33.53
46456;BME280;64052;47.466;9.094;2023-03-23T13:17:01;95259.91;;;19.55;33.18
46456;BME280;64052;47.466;9.094;2023-03-23T13:22:09;95261.97;;;19.52;33.81
46456;BME280;64052;47.466;9.094;2023-03-23T13:27:12;95259.25;;;19.39;33.19
46456;BME280;64052;47.466;9.094;2023-03-23T13:32:18;95251.66;;;19.49;34.40
46456;BME280;64052;47.466;9.094;2023-03-23T13:37:25;95256.34;;;19.34;33.53
46456;BME280;64052;47.466;9.094;2023-03-23T13:42:30;95256.50;;;19.26;34.14
46456;BME280;64052;47.466;9.094;2023-03-23T13:47:37;95248.72;;;19.24;34.61
46456;BME280;64052;47.466;9.094;2023-03-23T14:13:31;95229.63;;;19.34;35.43
46456;BME280;64052;47.466;9.094;2023-03-23T14:18:37;95235.38;;;19.31;35.67
46456;BME280;64052;47.466;9.094;2023-03-23T14:23:39;95235.09;;;19.12;35.52
46456;BME280;64052;47.466;9.094;2023-03-23T14:28:43;95231.19;;;19.08;36.28
46456;BME280;64052;47.466;9.094;2023-03-23T14:33:44;95244.94;;;19.05;38.03
46456;BME280;64052;47.466;9.094;2023-03-23T14:38:44;95248.69;;;19.17;38.51
46456;BME280;64052;47.466;9.094;2023-03-23T14:43:45;95263.06;;;19.16;38.20
46456;BME280;64052;47.466;9.094;2023-03-23T14:48:45;95264.47;;;19.12;38.97
46456;BME280;64052;47.466;9.094;2023-03-23T14:53:46;95263.06;;;19.16;39.06
46456;BME280;64052;47.466;9.094;2023-03-23T14:58:51;95270.22;;;19.09;39.22
46456;BME280;64052;47.466;9.094;2023-03-23T15:03:59;95262.41;;;18.72;37.61
46456;BME280;64052;47.466;9.094;2023-03-23T15:09:02;95260.59;;;18.79;37.91
46456;BME280;64052;47.466;9.094;2023-03-23T15:14:22;95264.94;;;18.87;38.32
46456;BME280;64052;47.466;9.094;2023-03-23T15:19:32;95264.25;;;18.72;37.90
46456;BME280;64052;47.466;9.094;2023-03-23T15:24:37;95259.09;;;18.70;38.00
46456;BME280;64052;47.466;9.094;2023-03-23T15:29:52;95252.38;;;18.74;38.10
46456;BME280;64052;47.466;9.094;2023-03-23T15:34:53;95245.56;;;18.72;38.71
46456;BME280;64052;47.466;9.094;2023-03-23T15:39:56;95242.13;;;18.78;38.02
46456;BME280;64052;47.466;9.094;2023-03-23T15:55:28;95231.13;;;18.59;39.15
46456;BME280;64052;47.466;9.094;2023-03-23T16:00:28;95224.84;;;18.45;38.15
46456;BME280;64052;47.466;9.094;2023-03-23T16:05:31;95233.63;;;18.67;38.07
46456;BME280;64052;47.466;9.094;2023-03-23T16:10:34;95232.78;;;18.67;38.17
46456;BME280;64052;47.466;9.094;2023-03-23T16:15:36;95223.72;;;18.61;38.25
46456;BME280;64052;47.466;9.094;2023-03-23T16:20:37;95225.59;;;18.61;38.85
46456;BME280;64052;47.466;9.094;2023-03-23T16:25:39;95223.53;;;18.63;39.21
46456;BME280;64052;47.466;9.094;2023-03-23T16:30:42;95228.47;;;18.66;39.38
46456;BME280;64052;47.466;9.094;2023-03-23T16:35:45;95216.03;;;18.45;39.48
46456;BME280;64052;47.466;9.094;2023-03-23T16:40:47;95226.19;;;18.56;38.62
46456;BME280;64052;47.466;9.094;2023-03-23T16:45:48;95220.22;;;18.54;39.38
46456;BME280;64052;47.466;9.094;2023-03-23T16:50:51;95215.13;;;18.66;38.82
46456;BME280;64052;47.466;9.094;2023-03-23T16:55:52;95210.41;;;18.33;39.04
46456;BME280;64052;47.466;9.094;2023-03-23T17:00:59;95220.03;;;18.27;39.83
46456;BME280;64052;47.466;9.094;2023-03-23T17:06:01;95224.78;;;18.32;39.59
46456;BME280;64052;47.466;9.094;2023-03-23T17:11:03;95227.38;;;18.53;39.55
46456;BME280;64052;47.466;9.094;2023-03-23T17:16:05;95227.25;;;18.33;39.73
46456;BME280;64052;47.466;9.094;2023-03-23T17:21:07;95233.97;;;18.22;40.18
46456;BME280;64052;47.466;9.094;2023-03-23T17:26:08;95242.47;;;18.39;40.50
46456;BME280;64052;47.466;9.094;2023-03-23T17:31:10;95240.50;;;18.20;41.04
46456;BME280;64052;47.466;9.094;2023-03-23T17:36:11;95255.09;;;18.24;41.06
46456;BME280;64052;47.466;9.094;2023-03-23T17:41:13;95255.31;;;18.22;41.06
46456;BME280;64052;47.466;9.094;2023-03-23T17:46:14;95271.69;;;17.97;41.54
46456;BME280;64052;47.466;9.094;2023-03-23T17:51:16;95268.25;;;17.82;43.81
46456;BME280;64052;47.466;9.094;2023-03-23T17:56:17;95278.06;;;17.75;44.94
46456;BME280;64052;47.466;9.094;2023-03-23T18:01:19;95272.13;;;17.58;46.93
46456;BME280;64052;47.466;9.094;2023-03-23T18:06:21;95273.50;;;17.32;44.76
46456;BME280;64052;47.466;9.094;2023-03-23T18:11:22;95278.19;;;17.51;45.51
46456;BME280;64052;47.466;9.094;2023-03-23T18:16:25;95286.03;;;17.53;46.27
46456;BME280;64052;47.466;9.094;2023-03-23T18:21:26;95290.91;;;17.49;45.55
46456;BME280;64052;47.466;9.094;2023-03-23T18:26:29;95285.63;;;17.56;44.54
46456;BME280;64052;47.466;9.094;2023-03-23T18:31:30;95280.16;;;17.42;43.97
46456;BME280;64052;47.466;9.094;2023-03-23T18:36:32;95289.16;;;17.56;43.17
46456;BME280;64052;47.466;9.094;2023-03-23T18:41:34;95282.97;;;17.56;43.20
46456;BME280;64052;47.466;9.094;2023-03-23T18:46:36;95284.81;;;17.55;44.35
46456;BME280;64052;47.466;9.094;2023-03-23T18:51:37;95280.25;;;17.49;45.84
46456;BME280;64052;47.466;9.094;2023-03-23T18:56:39;95283.91;;;17.48;46.77
46456;BME280;64052;47.466;9.094;2023-03-23T19:01:40;95275.81;;;17.20;46.68
46456;BME280;64052;47.466;9.094;2023-03-23T19:06:42;95282.63;;;17.07;48.08
46456;BME280;64052;47.466;9.094;2023-03-23T19:11:45;95286.66;;;17.03;48.83
46456;BME280;64052;47.466;9.094;2023-03-23T19:16:46;95288.50;;;16.88;48.78
46456;BME280;64052;47.466;9.094;2023-03-23T19:21:48;95281.53;;;16.86;48.79
46456;BME280;64052;47.466;9.094;2023-03-23T19:26:49;95276.56;;;16.68;48.85
46456;BME280;64052;47.466;9.094;2023-03-23T19:31:52;95270.13;;;16.48;48.51
46456;BME280;64052;47.466;9.094;2023-03-23T19:36:55;95263.78;;;16.49;49.13
46456;BME280;64052;47.466;9.094;2023-03-23T19:42:06;95262.88;;;16.56;49.45
46456;BME280;64052;47.466;9.094;2023-03-23T19:47:08;95257.00;;;16.61;48.98
46456;BME280;64052;47.466;9.094;2023-03-23T19:52:11;95244.16;;;16.50;49.10
46456;BME280;64052;47.466;9.094;2023-03-23T19:57:15;95243.41;;;16.41;49.63
46456;BME280;64052;47.466;9.094;2023-03-23T20:02:17;95241.47;;;16.35;49.19
46456;BME280;64052;47.466;9.094;2023-03-23T20:07:18;95232.22;;;16.46;49.15
46456;BME280;64052;47.466;9.094;2023-03-23T20:12:21;95235.91;;;16.44;48.65
46456;BME280;64052;47.466;9.094;2023-03-23T20:17:24;95232.31;;;16.52;48.10
46456;BME280;64052;47.466;9.094;2023-03-23T20:22:25;95234.44;;;16.57;48.94
46456;BME280;64052;47.466;9.094;2023-03-23T20:27:27;95220.66;;;16.38;49.64
46456;BME280;64052;47.466;9.094;2023-03-23T20:32:30;95216.97;;;16.09;50.19
46456;BME280;64052;47.466;9.094;2023-03-23T20:37:32;95206.84;;;15.90;50.96
46456;BME280;64052;47.466;9.094;2023-03-23T20:42:34;95210.66;;;15.87;50.52
46456;BME280;64052;47.466;9.094;2023-03-23T20:47:36;95204.56;;;15.78;50.58
46456;BME280;64052;47.466;9.094;2023-03-23T20:52:38;95190.22;;;15.87;50.88
46456;BME280;64052;47.466;9.094;2023-03-23T20:57:40;95178.53;;;15.73;51.59
46456;BME280;64052;47.466;9.094;2023-03-23T21:02:41;95170.56;;;15.73;51.27
46456;BME280;64052;47.466;9.094;2023-03-23T21:07:43;95169.75;;;15.73;51.38
46456;BME280;64052;47.466;9.094;2023-03-23T21:12:44;95168.94;;;15.49;51.60
46456;BME280;64052;47.466;9.094;2023-03-23T21:17:46;95157.56;;;15.40;52.33
46456;BME280;64052;47.466;9.094;2023-03-23T21:22:48;95144.88;;;15.27;52.21
46456;BME280;64052;47.466;9.094;2023-03-23T21:27:50;95134.75;;;15.08;52.93
46456;BME280;64052;47.466;9.094;2023-03-23T21:32:52;95143.72;;;15.07;52.98
46456;BME280;64052;47.466;9.094;2023-03-23T21:37:54;95141.22;;;15.05;53.10
46456;BME280;64052;47.466;9.094;2023-03-23T21:42:55;95137.56;;;15.06;52.80
46456;BME280;64052;47.466;9.094;2023-03-23T21:47:57;95125.09;;;15.30;51.87
46456;BME280;64052;47.466;9.094;2023-03-23T21:52:59;95122.13;;;15.48;51.12
46456;BME280;64052;47.466;9.094;2023-03-23T21:58:00;95128.09;;;15.50;51.46
46456;BME280;64052;47.466;9.094;2023-03-23T22:03:02;95113.59;;;15.38;52.09
46456;BME280;64052;47.466;9.094;2023-03-23T22:08:04;95114.22;;;15.40;52.02
46456;BME280;64052;47.466;9.094;2023-03-23T22:13:06;95104.66;;;15.30;51.98
46456;BME280;64052;47.466;9.094;2023-03-23T22:18:07;95081.03;;;15.21;52.53
46456;BME280;64052;47.466;9.094;2023-03-23T22:23:09;95078.09;;;15.15;52.37
46456;BME280;64052;47.466;9.094;2023-03-23T22:28:11;95076.13;;;15.09;52.59
46456;BME280;64052;47.466;9.094;2023-03-23T22:33:13;95070.06;;;15.00;53.11
46456;BME280;64052;47.466;9.094;2023-03-23T22:38:15;95079.81;;;15.08;52.93
46456;BME280;64052;47.466;9.094;2023-03-23T22:43:16;95078.09;;;15.15;52.47
46456;BME280;64052;47.466;9.094;2023-03-23T22:48:19;95080.56;;;15.17;52.33
46456;BME280;64052;47.466;9.094;2023-03-23T22:53:21;95068.59;;;15.21;52.01
46456;BME280;64052;47.466;9.094;2023-03-23T22:58:24;95068.13;;;15.17;51.64
46456;BME280;64052;47.466;9.094;2023-03-23T23:03:27;95061.69;;;15.12;52.67
46456;BME280;64052;47.466;9.094;2023-03-23T23:08:29;95071.31;;;15.13;52.92
46456;BME280;64052;47.466;9.094;2023-03-23T23:13:30;95067.25;;;15.02;53.41
46456;BME280;64052;47.466;9.094;2023-03-23T23:18:34;95060.72;;;14.89;53.08
46456;BME280;64052;47.466;9.094;2023-03-23T23:23:36;95070.56;;;15.04;52.74
46456;BME280;64052;47.466;9.094;2023-03-23T23:28:37;95083.03;;;15.18;52.41
46456;BME280;64052;47.466;9.094;2023-03-23T23:33:39;95105.78;;;15.21;51.83
46456;BME280;64052;47.466;9.094;2023-03-23T23:38:40;95107.41;;;14.99;53.73
46456;BME280;64052;47.466;9.094;2023-03-23T23:43:42;95094.94;;;15.23;54.26
46456;BME280;64052;47.466;9.094;2023-03-23T23:48:43;95092.94;;;15.25;52.24
46456;BME280;64052;47.466;9.094;2023-03-23T23:53:45;95081.34;;;15.41;53.76
46456;BME280;64052;47.466;9.094;2023-03-23T23:58:47;95104.28;;;15.18;53.84
